KDAB

Daytona Beach International Airport

Airport
ICAO code
KDAB
IATA Code
DAB
Summary
ICAO Region
NAM
ICAO Territory
Location

Daytona Beach, Florida

Serving
Daytona Beach
Elevation
34 ft
Coordinates
29° 10' 46" N , 81° 3' 22" W
KCC
Airport LOS
Parallel Runway Operation
Metar
KDAB 040753Z 02004KT 1/4SM FG VV002 17/17 A3010 RMK AO2 TWR VIS 1 SLP192 T01720172 RVRNO

Description

Daytona Beach International Airport is a public county-owned airport located 3 nm southwest of the central business district of Daytona Beach, in Volusia County, Florida.

Airport map

Aerial View

SKYbrary Partners:

Safety knowledge contributed by: